Time;durP1;ratioP1;P1;durP2;ratioP2;P2;SDS_P1;SDS_P2;PMS_P1;PMS_P2;Temp;Humidity;BMP_temperature;BMP_pressure;BME280_temperature;BME280_humidity;BME280_pressure;Samples;Min_cycle;Max_cycle;Signal;HPM_P1;HPM_P2
2022/09/25 00:02:00;;;;;;;8.38;2.90;;;;;;;;;;4932969;29;20031;-87
2022/09/25 00:04:26;;;;;;;6.93;3.47;;;;;;;;;;4914350;29;20103;-88
2022/09/25 00:06:52;;;;;;;8.80;3.28;;;;;;;;;;4930111;29;20036;-89
2022/09/25 00:09:22;;;;;;;6.72;3.13;;;;;;;;;;4934770;29;20034;-88
2022/09/25 00:11:48;;;;;;;7.60;2.83;;;;;;;;;;4931912;29;20050;-90
2022/09/25 00:14:14;;;;;;;7.07;3.15;;;;;;;;;;4923002;29;20069;-88
2022/09/25 00:16:41;;;;;;;14.98;3.90;;;;;;;;;;4933720;29;20028;-88
2022/09/25 00:21:52;;;;;;;7.90;2.95;;;;;;;;;;4933722;29;20097;-90
2022/09/25 00:24:18;;;;;;;9.98;3.13;;;13.10;99.90;;;;;;4926290;29;20024;-88
2022/09/25 00:26:44;;;;;;;5.82;3.15;;;;;;;;;;4924820;29;20070;-91
2022/09/25 00:29:16;;;;;;;6.25;2.80;;;13.20;99.90;;;;;;4923869;29;20038;-91
2022/09/25 00:31:42;;;;;;;7.63;2.80;;;13.20;99.90;;;;;;4922192;29;20024;-92
2022/09/25 00:34:09;;;;;;;11.30;2.90;;;13.10;99.90;;;;;;4926597;29;20656;-93
2022/09/25 00:36:35;;;;;;;7.60;2.80;;;;;;;;;;4923888;29;20059;-91
2022/09/25 00:39:01;;;;;;;9.63;2.83;;;;;;;;;;4925435;29;20119;-92
2022/09/25 00:41:31;;;;;;;6.38;2.75;;;13.10;99.90;;;;;;4921029;29;20053;-90
2022/09/25 00:43:59;;;;;;;9.93;2.72;;;13.10;99.90;;;;;;4921216;29;20034;-92
2022/09/25 00:46:43;;;;;;;8.95;3.28;;;13.00;99.90;;;;;;4925823;29;20040;-89
2022/09/25 00:49:09;;;;;;;10.00;2.90;;;;;;;;;;4929504;29;20376;-89
2022/09/25 00:51:44;;;;;;;8.55;2.67;;;13.30;99.90;;;;;;4931785;29;20028;-90
2022/09/25 00:54:16;;;;;;;6.10;2.58;;;13.20;99.90;;;;;;4920250;29;20091;-92
2022/09/25 00:56:45;;;;;;;6.97;2.85;;;13.20;99.90;;;;;;4926071;29;20058;-90
2022/09/25 00:59:15;;;;;;;9.05;2.78;;;13.10;99.90;;;;;;4925540;29;20055;-93
2022/09/25 01:01:41;;;;;;;7.57;2.50;;;;;;;;;;4927639;29;20032;-89
2022/09/25 01:04:08;;;;;;;6.82;3.08;;;13.00;99.90;;;;;;4926923;29;20042;-89
2022/09/25 01:06:34;;;;;;;7.35;2.33;;;13.00;99.90;;;;;;4926693;29;20038;-90
2022/09/25 01:09:01;;;;;;;6.85;2.47;;;12.90;99.90;;;;;;4920728;29;20055;-89
2022/09/25 01:11:28;;;;;;;9.73;2.47;;;;;;;;;;4918129;29;20036;-89
2022/09/25 01:13:57;;;;;;;6.78;2.60;;;13.00;99.90;;;;;;4922068;29;20032;-90
2022/09/25 01:16:38;;;;;;;7.30;2.50;;;13.10;99.90;;;;;;4918442;29;20032;-90
2022/09/25 01:19:04;;;;;;;9.18;2.75;;;;;;;;;;4931266;29;20103;-88
2022/09/25 01:21:37;;;;;;;8.02;2.40;;;13.00;99.90;;;;;;4925628;29;20060;-91
2022/09/25 01:24:28;;;;;;;16.23;2.72;;;12.90;99.90;;;;;;4923932;29;20131;-89
2022/09/25 01:26:54;;;;;;;4.85;2.30;;;;;;;;;;4927142;29;20504;-89
2022/09/25 01:29:36;;;;;;;9.15;3.10;;;13.10;99.90;;;;;;4927830;29;20031;-90
2022/09/25 01:32:12;;;;;;;8.90;2.88;;;13.10;99.90;;;;;;4921192;29;20063;-93
2022/09/25 01:35:06;;;;;;;6.85;2.78;;;12.80;99.90;;;;;;4925290;29;20044;-91
2022/09/25 01:37:46;;;;;;;8.60;3.03;;;12.80;99.90;;;;;;4929005;29;20036;-89
2022/09/25 01:40:45;;;;;;;11.85;2.90;;;12.60;99.90;;;;;;4934136;29;20032;-93
2022/09/25 01:43:25;;;;;;;8.25;2.97;;;11.40;99.90;;;;;;4926347;29;20046;-88
2022/09/25 01:45:59;;;;;;;6.50;2.90;;;13.30;99.90;;;;;;4935232;29;20028;-88
2022/09/25 01:48:30;;;;;;;7.03;3.85;;;13.10;99.90;;;;;;4935180;29;20031;-88
2022/09/25 01:51:27;;;;;;;10.43;3.50;;;12.80;99.90;;;;;;4935528;29;20374;-89
2022/09/25 01:54:03;;;;;;;10.05;3.13;;;12.90;99.90;;;;;;4935542;29;20042;-89
2022/09/25 01:56:35;;;;;;;7.38;3.20;;;12.90;99.90;;;;;;4933441;29;20122;-89
2022/09/25 01:59:15;;;;;;;10.70;3.75;;;12.90;99.90;;;;;;4932665;29;20085;-89
2022/09/25 02:01:46;;;;;;;9.43;3.30;;;12.90;99.90;;;;;;4916153;29;20036;-92
2022/09/25 02:04:29;;;;;;;18.80;4.28;;;12.90;99.90;;;;;;4915565;29;20031;-89
2022/09/25 02:07:00;;;;;;;7.18;2.72;;;12.90;99.90;;;;;;4914539;29;20020;-92
2022/09/25 02:09:47;;;;;;;8.70;2.80;;;12.80;99.90;;;;;;4915654;29;20028;-92
2022/09/25 02:12:25;;;;;;;10.90;3.55;;;12.80;99.90;;;;;;4915190;29;20024;-90
2022/09/25 02:15:04;;;;;;;6.95;3.25;;;12.90;99.90;;;;;;4919985;29;20024;-88
2022/09/25 02:20:41;;;;;;;7.27;3.27;;;12.80;99.90;;;;;;4943986;29;20055;-90
2022/09/25 02:23:28;;;;;;;9.27;4.82;;;12.70;99.90;;;;;;4942498;29;20028;-91
2022/09/25 02:26:08;;;;;;;8.80;3.70;;;12.70;99.90;;;;;;4937469;29;20043;-88
2022/09/25 02:28:34;;;;;;;8.20;3.55;;;12.80;99.90;;;;;;4938000;29;20090;-91
2022/09/25 02:31:05;;;;;;;10.18;4.05;;;12.80;99.90;;;;;;4935253;29;20082;-89
2022/09/25 02:33:31;;;;;;;13.60;4.45;;;13.20;99.90;;;;;;4935320;29;20047;-96
2022/09/25 02:36:00;;;;;;;7.80;3.50;;;12.80;99.90;;;;;;4933932;29;20027;-91
2022/09/25 02:38:26;;;;;;;13.55;3.97;;;;;;;;;;4933736;29;20067;-90
2022/09/25 02:41:16;;;;;;;12.45;4.15;;;12.90;99.90;;;;;;4934714;29;20116;-94
2022/09/25 02:43:57;;;;;;;10.32;4.47;;;12.70;99.90;;;;;;4935596;29;20107;-88
2022/09/25 02:46:49;;;;;;;9.68;3.72;;;12.90;99.90;;;;;;4935010;29;20480;-89
2022/09/25 02:49:15;;;;;;;10.98;4.10;;;;;;;;;;4935007;29;20350;-93
2022/09/25 02:52:01;;;;;;;8.30;3.67;;;12.80;99.90;;;;;;4939539;29;20559;-89
2022/09/25 02:54:52;;;;;;;9.20;3.70;;;12.80;99.90;;;;;;4929546;29;20504;-90
2022/09/25 02:57:44;;;;;;;6.10;3.83;;;12.70;99.90;;;;;;4891845;29;20055;-88
2022/09/25 03:00:22;;;;;;;15.07;4.20;;;13.00;99.90;;;;;;4921228;29;20060;-88
2022/09/25 03:02:55;;;;;;;9.18;4.18;;;12.80;99.90;;;;;;4914742;29;20500;-92
2022/09/25 03:05:22;;;;;;;5.80;3.97;;;12.60;99.90;;;;;;4901942;29;20507;-95
2022/09/25 03:10:35;;;;;;;17.92;3.83;;;12.80;99.90;;;;;;4916444;29;20043;-91
2022/09/25 03:13:16;;;;;;;9.13;3.88;;;12.80;99.90;;;;;;4917817;29;20376;-93
2022/09/25 03:15:47;;;;;;;11.10;4.53;;;12.70;99.90;;;;;;4930576;29;20032;-90
2022/09/25 03:18:14;;;;;;;13.23;4.38;;;;;;;;;;4928137;29;20095;-89
2022/09/25 03:20:40;;;;;;;10.02;3.97;;;;;;;;;;4928786;29;20027;-89
2022/09/25 03:23:06;;;;;;;11.02;3.95;;;;;;;;;;4934843;29;20058;-92
2022/09/25 03:25:32;;;;;;;12.75;4.20;;;;;;;;;;4932705;29;20038;-91
2022/09/25 03:27:58;;;;;;;13.00;4.10;;;;;;;;;;4931245;29;20074;-88
2022/09/25 03:30:24;;;;;;;9.50;4.15;;;12.70;99.90;;;;;;4927218;29;20039;-91
2022/09/25 03:32:50;;;;;;;10.23;3.60;;;;;;;;;;4924963;29;20024;-90
2022/09/25 03:35:16;;;;;;;9.88;3.80;;;;;;;;;;4934073;29;20116;-90
2022/09/25 03:37:42;;;;;;;10.18;3.35;;;;;;;;;;4932483;29;20410;-88
2022/09/25 03:40:08;;;;;;;9.93;3.83;;;12.70;99.90;;;;;;4935604;29;20028;-91
2022/09/25 03:42:35;;;;;;;12.00;3.78;;;;;;;;;;4933958;29;20035;-90
2022/09/25 03:45:01;;;;;;;9.80;3.63;;;;;;;;;;4933144;29;20032;-88
2022/09/25 03:47:27;;;;;;;11.68;3.40;;;;;;;;;;4925151;29;20035;-89
2022/09/25 03:49:53;;;;;;;10.57;4.07;;;;;;;;;;4914623;29;20420;-89
2022/09/25 03:52:19;;;;;;;8.82;3.28;;;12.80;99.90;;;;;;4915367;29;20218;-89
2022/09/25 03:54:45;;;;;;;9.50;3.33;;;;;;;;;;4916204;29;20024;-87
2022/09/25 03:57:11;;;;;;;8.07;3.30;;;12.90;99.90;;;;;;4913524;29;20409;-90
2022/09/25 03:59:37;;;;;;;6.00;3.00;;;;;;;;;;4915589;29;20544;-89
2022/09/25 04:02:03;;;;;;;8.70;3.30;;;14.70;99.90;;;;;;4912382;29;20047;-91
2022/09/25 04:04:29;;;;;;;7.28;3.30;;;12.80;99.90;;;;;;4913630;29;20028;-88
2022/09/25 04:06:55;;;;;;;10.88;3.70;;;;;;;;;;4913087;29;20395;-90
2022/09/25 04:09:22;;;;;;;9.55;3.60;;;;;;;;;;4913933;29;20032;-89
2022/09/25 04:11:48;;;;;;;10.93;3.80;;;;;;;;;;4913537;29;20033;-88
2022/09/25 04:14:15;;;;;;;9.20;3.78;;;;;;;;;;4912395;29;20042;-88
2022/09/25 04:16:41;;;;;;;9.93;3.17;;;;;;;;;;4912536;29;20036;-88
2022/09/25 04:19:06;;;;;;;11.20;3.10;;;12.70;99.90;;;;;;4912235;29;20466;-88
2022/09/25 04:21:32;;;;;;;6.78;3.03;;;;;;;;;;4912350;29;20070;-88
2022/09/25 04:26:45;;;;;;;10.00;3.65;;;;;;;;;;4932268;29;20071;-90
2022/09/25 04:29:13;;;;;;;5.63;3.08;;;;;;;;;;4930843;29;20374;-88
2022/09/25 04:31:39;;;;;;;17.17;2.80;;;12.70;99.90;;;;;;4931927;29;20563;-88
2022/09/25 04:34:05;;;;;;;8.07;2.90;;;;;;;;;;4930696;29;20122;-89
2022/09/25 04:36:31;;;;;;;6.00;2.75;;;;;;;;;;4932206;29;20032;-88
2022/09/25 04:38:57;;;;;;;10.27;3.00;;;;;;;;;;4933018;29;20056;-87
2022/09/25 04:41:23;;;;;;;9.15;2.80;;;;;;;;;;4930858;29;20508;-87
2022/09/25 04:43:48;;;;;;;9.02;3.00;;;11.70;99.90;;;;;;4930579;29;20031;-89
2022/09/25 04:46:16;;;;;;;7.93;3.20;;;12.70;99.90;;;;;;4932013;29;20032;-89
2022/09/25 04:48:45;;;;;;;10.18;3.15;;;12.70;99.90;;;;;;4932065;29;20136;-88
2022/09/25 04:51:11;;;;;;;5.95;3.13;;;;;;;;;;4931012;29;20035;-90
2022/09/25 04:53:39;;;;;;;10.05;3.65;;;;;;;;;;4931256;29;20032;-90
2022/09/25 04:56:07;;;;;;;9.88;2.90;;;12.60;99.90;;;;;;4932599;29;20039;-89
2022/09/25 04:58:33;;;;;;;13.77;3.20;;;12.70;99.90;;;;;;4938027;29;20138;-88
2022/09/25 05:01:08;;;;;;;9.07;3.13;;;12.70;99.90;;;;;;4940145;29;20263;-88
2022/09/25 05:03:34;;;;;;;9.45;3.60;;;;;;;;;;4941802;29;20039;-90
2022/09/25 05:06:00;;;;;;;9.48;3.65;;;;;;;;;;4938463;29;20035;-89
2022/09/25 05:08:26;;;;;;;9.32;3.20;;;;;;;;;;4937235;29;20038;-90
2022/09/25 05:10:52;;;;;;;10.80;3.10;;;;;;;;;;4935669;29;20246;-90
2022/09/25 05:13:18;;;;;;;7.00;3.47;;;;;;;;;;4936312;29;20130;-90
2022/09/25 05:15:44;;;;;;;8.43;3.20;;;;;;;;;;4935764;29;20488;-90
2022/09/25 05:18:17;;;;;;;10.40;3.25;;;12.50;99.90;;;;;;4935020;29;20071;-91
2022/09/25 05:20:43;;;;;;;7.72;3.42;;;;;;;;;;4934911;29;20114;-89
2022/09/25 05:23:10;;;;;;;8.50;2.80;;;;;;;;;;4935723;29;20030;-88
2022/09/25 05:25:36;;;;;;;8.82;3.08;;;;;;;;;;4914739;29;20032;-89
2022/09/25 05:28:02;;;;;;;7.97;3.10;;;;;;;;;;4915621;29;20079;-88
2022/09/25 05:30:30;;;;;;;9.13;3.00;;;12.60;99.90;;;;;;4915066;29;20032;-90
2022/09/25 05:32:59;;;;;;;5.63;3.00;;;;;;;;;;4914944;29;20040;-89
2022/09/25 05:35:27;;;;;;;5.78;2.70;;;12.60;99.90;;;;;;4914584;29;20079;-88
2022/09/25 05:37:53;;;;;;;7.53;3.35;;;;;;;;;;4915183;29;20047;-89
2022/09/25 05:40:19;;;;;;;12.75;3.10;;;;;;;;;;4915042;29;20462;-89
2022/09/25 05:42:46;;;;;;;10.88;2.95;;;12.50;99.90;;;;;;4915106;29;20043;-89
2022/09/25 05:45:17;;;;;;;5.93;2.75;;;12.50;99.90;;;;;;4914540;29;20075;-91
2022/09/25 05:47:43;;;;;;;10.05;2.90;;;;;;;;;;4916095;29;20032;-88
2022/09/25 05:50:12;;;;;;;8.88;2.72;;;12.60;99.90;;;;;;4917095;29;20029;-91
2022/09/25 05:52:39;;;;;;;13.88;2.92;;;;;;;;;;4914519;29;20028;-91
2022/09/25 05:55:06;;;;;;;11.00;3.03;;;12.60;99.90;;;;;;4915008;29;20111;-89
2022/09/25 05:57:34;;;;;;;6.90;2.78;;;12.60;99.90;;;;;;4916817;29;20075;-89
2022/09/25 06:00:00;;;;;;;9.63;2.80;;;12.60;99.90;;;;;;4915009;29;20036;-89
2022/09/25 06:02:26;;;;;;;11.60;3.00;;;;;;;;;;4916539;29;20032;-88
2022/09/25 06:04:52;;;;;;;15.65;2.88;;;12.60;99.90;;;;;;4914137;29;20031;-89
2022/09/25 06:07:18;;;;;;;7.82;2.72;;;;;;;;;;4914342;29;20039;-91
2022/09/25 06:09:44;;;;;;;21.15;3.15;;;;;;;;;;4916285;29;20043;-90
2022/09/25 06:12:10;;;;;;;17.40;3.30;;;;;;;;;;4916100;29;20028;-90
2022/09/25 06:14:36;;;;;;;8.68;3.20;;;12.50;99.90;;;;;;4916940;29;20036;-90
2022/09/25 06:17:02;;;;;;;6.80;2.50;;;;;;;;;;4915578;29;20390;-90
2022/09/25 06:19:29;;;;;;;10.57;2.90;;;;;;;;;;4915165;29;20032;-93
2022/09/25 06:21:58;;;;;;;17.15;2.85;;;12.80;99.90;;;;;;4915614;29;20083;-88
2022/09/25 06:24:24;;;;;;;15.65;3.25;;;;;;;;;;4927256;29;20031;-89
2022/09/25 06:26:50;;;;;;;12.35;2.97;;;;;;;;;;4934024;29;20024;-89
2022/09/25 06:29:16;;;;;;;7.32;2.90;;;;;;;;;;4935811;29;20035;-92
2022/09/25 06:31:43;;;;;;;10.05;3.10;;;;;;;;;;4935883;29;20053;-88
2022/09/25 06:34:10;;;;;;;13.57;2.97;;;12.80;99.90;;;;;;4934701;29;20054;-90
2022/09/25 06:36:36;;;;;;;14.80;2.93;;;;;;;;;;4936653;29;20024;-93
2022/09/25 06:39:03;;;;;;;19.20;3.20;;;;;;;;;;4934808;29;20036;-92
2022/09/25 06:41:29;;;;;;;6.63;2.83;;;;;;;;;;4932801;29;20459;-89
2022/09/25 06:43:55;;;;;;;11.82;3.00;;;;;;;;;;4932743;29;20035;-89
2022/09/25 06:46:21;;;;;;;13.82;3.08;;;;;;;;;;4930441;29;20086;-91
2022/09/25 06:48:55;;;;;;;13.10;2.80;;;12.70;99.90;;;;;;4937130;29;20028;-92
2022/09/25 06:51:21;;;;;;;15.20;3.55;;;12.90;99.90;;;;;;4915187;29;20457;-90
2022/09/25 06:53:47;;;;;;;10.35;2.83;;;;;;;;;;4916266;29;20103;-91
2022/09/25 06:56:13;;;;;;;9.85;2.92;;;;;;;;;;4916257;29;20036;-88
2022/09/25 06:58:40;;;;;;;10.63;3.60;;;;;;;;;;4915915;29;20028;-90
2022/09/25 07:01:10;;;;;;;9.68;3.08;;;13.00;99.90;;;;;;4935135;29;20034;-91
2022/09/25 07:03:46;;;;;;;8.13;3.28;;;;;;;;;;4935787;29;20114;-91
2022/09/25 07:06:12;;;;;;;9.10;2.80;;;;;;;;;;4922626;29;20036;-90
2022/09/25 07:08:41;;;;;;;9.73;3.45;;;13.20;99.90;;;;;;4939332;29;20027;-88
2022/09/25 07:11:14;;;;;;;11.90;3.10;;;13.30;99.90;;;;;;4941125;29;20023;-91
2022/09/25 07:13:41;;;;;;;15.88;3.50;;;;;;;;;;4937456;29;20028;-87
2022/09/25 07:16:21;;;;;;;16.48;3.47;;;14.00;99.90;;;;;;4929629;29;20034;-92
2022/09/25 07:18:47;;;;;;;9.73;3.08;;;;;;;;;;4925183;29;20052;-91
2022/09/25 07:21:15;;;;;;;18.02;3.80;;;13.20;99.90;;;;;;4920070;29;20027;-91
2022/09/25 07:23:41;;;;;;;;;;;13.60;99.90;;;;;;4936812;29;20058;-89
2022/09/25 07:26:24;;;;;;;15.52;3.50;;;13.30;99.90;;;;;;4938924;29;20271;-88
2022/09/25 07:28:59;;;;;;;19.48;3.85;;;13.30;99.90;;;;;;4934977;29;20107;-87
2022/09/25 07:31:30;;;;;;;13.40;3.38;;;13.50;99.90;;;;;;4930474;29;20035;-89
2022/09/25 07:33:58;;;;;;;7.57;3.38;;;13.40;99.90;;;;;;4932034;29;20523;-90
2022/09/25 07:36:25;;;;;;;12.80;3.08;;;;;;;;;;4933732;29;20027;-89
2022/09/25 07:38:51;;;;;;;13.02;3.40;;;13.20;99.90;;;;;;4933761;29;20040;-90
2022/09/25 07:41:18;;;;;;;14.75;3.33;;;13.20;99.90;;;;;;4934842;29;20031;-90
2022/09/25 07:43:44;;;;;;;11.18;3.13;;;;;;;;;;4934558;29;20158;-90
2022/09/25 07:46:11;;;;;;;9.70;3.85;;;13.20;99.90;;;;;;4925793;29;20496;-89
2022/09/25 07:48:38;;;;;;;16.88;3.85;;;;;;;;;;4914136;29;20051;-92
2022/09/25 07:51:08;;;;;;;9.77;3.40;;;13.30;99.90;;;;;;4913226;29;20026;-91
2022/09/25 07:53:34;;;;;;;13.48;3.50;;;;;;;;;;4912949;29;20032;-90
2022/09/25 07:56:01;;;;;;;17.55;3.38;;;13.50;99.90;;;;;;4919010;29;20046;-89
2022/09/25 07:58:30;;;;;;;12.52;3.53;;;13.60;99.90;;;;;;4933001;29;20036;-89
2022/09/25 08:01:00;;;;;;;12.85;3.13;;;13.70;99.90;;;;;;4931779;29;20028;-89
2022/09/25 08:03:27;;;;;;;20.42;3.72;;;;;;;;;;4931134;29;20027;-90
2022/09/25 08:06:03;;;;;;;16.55;3.78;;;12.30;99.90;;;;;;4929996;29;20423;-89
2022/09/25 08:08:30;;;;;;;14.50;3.20;;;;;;;;;;4920051;29;20031;-89
2022/09/25 08:11:05;;;;;;;16.17;3.20;;;13.60;99.90;;;;;;4931377;29;20034;-88
2022/09/25 08:13:34;;;;;;;15.98;3.97;;;13.50;99.90;;;;;;4926707;29;20480;-89
2022/09/25 08:16:12;;;;;;;14.80;3.30;;;12.90;99.90;;;;;;4922560;29;20039;-90
2022/09/25 08:18:40;;;;;;;14.82;3.58;;;;;;;;;;4929852;29;20492;-88
2022/09/25 08:21:06;;;;;;;10.23;3.08;;;;;;;;;;4931653;29;20032;-88
2022/09/25 08:23:32;;;;;;;11.85;3.17;;;;;;;;;;4930934;29;20028;-88
2022/09/25 08:25:58;;;;;;;8.88;2.90;;;;;;;;;;4932178;29;20028;-91
2022/09/25 08:28:27;;;;;;;11.75;2.90;;;;;;;;;;4932647;29;20030;-89
2022/09/25 08:30:53;;;;;;;;;;;14.20;99.90;;;;;;4933412;29;20032;-88
2022/09/25 08:33:23;;;;;;;7.03;2.50;;;14.30;99.90;;;;;;4935588;29;20371;-89
2022/09/25 08:35:57;;;;;;;7.50;2.50;;;14.20;99.90;;;;;;4935536;29;20118;-90
2022/09/25 08:38:24;;;;;;;12.30;2.58;;;;;;;;;;4936777;29;20055;-89
2022/09/25 08:40:59;;;;;;;8.57;2.45;;;14.40;99.90;;;;;;4935714;29;20065;-89
2022/09/25 08:43:26;;;;;;;14.10;2.17;;;;;;;;;;4935292;29;20488;-89
2022/09/25 08:49:00;;;;;;;11.80;2.42;;;14.40;99.90;;;;;;4936847;29;20172;-89
2022/09/25 08:51:47;;;;;;;10.02;2.63;;;14.40;99.90;;;;;;4935714;29;20491;-91
2022/09/25 08:54:28;;;;;;;8.48;2.30;;;14.40;99.90;;;;;;4936527;29;20377;-90
2022/09/25 08:57:00;;;;;;;10.27;2.50;;;14.40;99.90;;;;;;4935368;29;20395;-91
2022/09/25 08:59:27;;;;;;;12.40;2.55;;;;;;;;;;4936674;29;20449;-90
2022/09/25 09:02:01;;;;;;;10.77;2.92;;;14.40;99.90;;;;;;4937682;29;20024;-89
2022/09/25 09:04:45;;;;;;;11.43;2.67;;;14.60;99.90;;;;;;4942000;29;20136;-88
2022/09/25 09:07:18;;;;;;;9.75;2.45;;;15.00;99.90;;;;;;4928264;29;20028;-92
2022/09/25 09:09:50;;;;;;;23.75;5.07;;;15.00;99.90;;;;;;4939907;29;20091;-92
2022/09/25 09:12:28;;;;;;;10.63;2.33;;;15.20;99.90;;;;;;4939378;29;20047;-90
2022/09/25 09:15:05;;;;;;;6.30;2.08;;;15.40;99.90;;;;;;4935802;29;20499;-89
2022/09/25 09:17:44;;;;;;;10.50;3.42;;;15.60;99.90;;;;;;4935931;29;20120;-89
2022/09/25 09:20:17;;;;;;;;;;;15.50;99.90;;;;;;4936311;29;20024;-90
2022/09/25 09:22:52;;;;;;;16.42;2.95;;;15.80;99.90;;;;;;4936574;29;20272;-89
2022/09/25 09:25:29;;;;;;;10.27;2.50;;;14.50;99.90;;;;;;4934973;29;20023;-89
2022/09/25 09:28:37;;;;;;;9.80;1.90;;;15.60;99.90;;;;;;4934763;29;20027;-89
2022/09/25 09:31:19;;;;;;;10.50;2.20;;;;;;;;;;4920171;29;20048;-87
2022/09/25 09:33:53;;;;;;;14.95;2.50;;;;;;;;;;4934384;29;20403;-89
2022/09/25 09:36:29;;;;;;;11.35;2.05;;;;;;;;;;4935331;29;20104;-89
2022/09/25 09:39:10;;;;;;;10.68;1.92;;;;;;;;;;4915507;29;20032;-90
2022/09/25 09:41:45;;;;;;;5.03;2.10;;;;;;;;;;4914840;29;20028;-89
2022/09/25 09:44:18;;;;;;;12.60;2.53;;;;;;;;;;4914906;29;20485;-90
2022/09/25 09:47:02;;;;;;;5.20;2.10;;;;;;;;;;4915343;29;20496;-88
2022/09/25 09:49:50;;;;;;;14.65;2.70;;;;;;;;;;4924242;29;20078;-89
2022/09/25 09:52:21;;;;;;;10.35;2.42;;;;;;;;;;4934121;29;20122;-89
2022/09/25 09:55:06;;;;;;;11.55;2.40;;;;;;;;;;4924443;29;20044;-89
2022/09/25 09:57:35;;;;;;;10.63;2.33;;;;;;;;;;4914120;29;20505;-89
2022/09/25 10:00:04;;;;;;;11.63;2.40;;;;;;;;;;4915061;29;20026;-88
2022/09/25 10:02:44;;;;;;;12.57;2.75;;;;;;;;;;4917509;29;20032;-88
2022/09/25 10:05:25;;;;;;;13.80;2.75;;;;;;;;;;4930869;29;20035;-90
2022/09/25 10:07:51;;;;;;;21.48;2.60;;;;;;;;;;4927998;29;20191;-90
2022/09/25 10:10:27;;;;;;;10.27;2.60;;;;;;;;;;4916308;29;20076;-89
2022/09/25 10:12:54;;;;;;;11.73;2.50;;;;;;;;;;4933267;29;20445;-88
2022/09/25 10:15:27;;;;;;;7.55;2.40;;;;;;;;;;4933250;29;20027;-87
2022/09/25 10:17:54;;;;;;;8.55;2.92;;;;;;;;;;4930345;29;20036;-88
2022/09/25 10:20:21;;;;;;;15.15;3.30;;;;;;;;;;4931945;29;20031;-88
2022/09/25 10:22:48;;;;;;;8.50;2.50;;;;;;;;;;4941063;29;20032;-88
2022/09/25 10:25:35;;;;;;;11.38;2.65;;;;;;;;;;4923779;29;20040;-90
2022/09/25 10:28:20;;;;;;;11.10;3.20;;;;;;;;;;4919994;29;20027;-90
2022/09/25 10:30:46;;;;;;;10.82;3.10;;;;;;;;;;4925005;29;20115;-91
2022/09/25 10:33:23;;;;;;;8.13;2.67;;;;;;;;;;4920548;29;20040;-91
2022/09/25 10:35:53;;;;;;;10.43;2.45;;;;;;;;;;4920448;29;20485;-90
2022/09/25 10:38:45;;;;;;;10.25;2.70;;;;;;;;;;4920810;29;20099;-90
2022/09/25 10:41:35;;;;;;;8.35;2.40;;;;;;;;;;4919535;29;20197;-92
2022/09/25 10:44:01;;;;;;;17.23;2.78;;;;;;;;;;4924641;29;20058;-90
2022/09/25 10:52:07;;;;;;;9.68;2.80;;;;;;;;;;4934039;29;20043;-88
2022/09/25 10:54:38;;;;;;;6.47;2.17;;;;;;;;;;4931992;29;20050;-91
2022/09/25 10:57:31;;;;;;;7.43;2.00;;;;;;;;;;4932369;29;20047;-88
2022/09/25 11:00:18;;;;;;;11.60;2.85;;;;;;;;;;4925699;29;20135;-90
2022/09/25 11:02:45;;;;;;;13.13;2.33;;;;;;;;;;4922985;29;20396;-89
2022/09/25 11:05:16;;;;;;;15.95;2.72;;;;;;;;;;4921137;29;20032;-89
2022/09/25 11:07:53;;;;;;;15.27;2.13;;;;;;;;;;4931642;29;20519;-90
2022/09/25 11:10:32;;;;;;;4.15;1.60;;;;;;;;;;4928612;29;20079;-88
2022/09/25 11:12:58;;;;;;;6.32;1.73;;;;;;;;;;4926834;29;20034;-88
2022/09/25 11:15:26;;;;;;;7.13;1.73;;;;;;;;;;4921530;29;20437;-88
2022/09/25 11:17:53;;;;;;;6.18;1.75;;;;;;;;;;4926556;29;20103;-89
2022/09/25 11:20:28;;;;;;;13.23;2.20;;;;;;;;;;4930240;29;20050;-90
2022/09/25 11:22:56;;;;;;;4.70;1.92;;;;;;;;;;4933133;29;20221;-89
2022/09/25 11:25:41;;;;;;;5.95;1.70;;;;;;;;;;4932859;29;20030;-90
2022/09/25 11:28:16;;;;;;;4.70;1.90;;;;;;;;;;4925396;29;20040;-89
2022/09/25 11:30:47;;;;;;;14.05;2.42;;;;;;;;;;4922460;29;20474;-91
2022/09/25 11:33:23;;;;;;;13.18;3.70;;;;;;;;;;4925671;29;20048;-89
2022/09/25 11:35:49;;;;;;;17.02;5.32;;;;;;;;;;4922953;29;20408;-89
2022/09/25 11:41:21;;;;;;;4.60;2.08;;;;;;;;;;4923249;29;20042;-89
2022/09/25 11:43:51;;;;;;;6.20;1.83;;;;;;;;;;4919862;29;20035;-92
2022/09/25 11:46:38;;;;;;;4.05;1.40;;;;;;;;;;4924833;29;20058;-89
2022/09/25 11:49:14;;;;;;;6.28;1.30;;;;;;;;;;4921563;29;20057;-89
2022/09/25 11:52:01;;;;;;;7.55;1.70;;;;;;;;;;4928081;29;20031;-89
2022/09/25 11:54:53;;;;;;;4.60;1.50;;;;;;;;;;4926184;29;20039;-89
2022/09/25 11:57:39;;;;;;;4.72;1.65;;;;;;;;;;4931738;29;20100;-90
2022/09/25 12:00:27;;;;;;;5.45;1.60;;;;;;;;;;4891333;29;20036;-90
2022/09/25 12:03:22;;;;;;;9.32;1.90;;;;;;;;;;4917131;29;20031;-91
2022/09/25 12:06:20;;;;;;;;;;;;;;;;;;;;;
2022/09/25 12:09:01;;;;;;;5.53;1.45;;;;;;;;;;4932990;29;20096;-91
2022/09/25 12:11:42;;;;;;;7.97;1.52;;;;;;;;;;4926104;29;20027;-92
2022/09/25 12:14:16;;;;;;;4.90;1.50;;;;;;;;;;4927225;29;20050;-91
2022/09/25 12:17:30;;;;;;;3.08;1.30;;;;;;;;;;4924953;29;20504;-92
2022/09/25 12:20:05;;;;;;;4.15;1.13;;;;;;;;;;4924903;29;20051;-91
2022/09/25 12:22:52;;;;;;;5.80;1.30;;;;;;;;;;4917348;29;20404;-94
2022/09/25 12:25:26;;;;;;;4.78;1.63;;;;;;;;;;4913988;29;20032;-91
2022/09/25 12:33:58;;;;;;;;;;;;;;;;;;;;;
2022/09/25 12:39:40;;;;;;;;;;;;;;;;;;;;;
2022/09/25 12:42:26;;;;;;;;;;;;;;;;;;;;;
2022/09/25 12:45:45;;;;;;;6.50;1.30;;;;;;;;;;4893576;29;20052;-90
2022/09/25 12:48:50;;;;;;;;;;;;;;;;;;;;;
2022/09/25 12:51:20;;;;;;;4.72;1.58;;;;;;;;;;4851368;29;20057;-93
2022/09/25 12:57:13;;;;;;;7.00;1.50;;;;;;;;;;4812039;29;20065;-93
2022/09/25 13:00:07;;;;;;;3.67;1.25;;;;;;;;;;4852296;29;20037;-92
2022/09/25 13:08:49;;;;;;;5.10;1.40;;;;;;;;;;4891292;29;20184;-91
2022/09/25 13:11:27;;;;;;;7.95;1.70;;;;;;;;;;4921334;29;20119;-93
2022/09/25 13:14:05;;;;;;;9.45;1.85;;;;;;;;;;4929076;29;20034;-92
2022/09/25 13:16:41;;;;;;;;;;;;;;;;;;;;;
2022/09/25 13:19:44;;;;;;;7.60;1.50;;;;;;;;;;4928908;29;20083;-93
2022/09/25 13:22:33;;;;;;;7.35;1.58;;;;;;;;;;4927174;29;20047;-92
2022/09/25 13:25:40;;;;;;;7.28;1.80;;;;;;;;;;4929168;28;20043;-94
2022/09/25 13:34:04;;;;;;;12.63;1.63;;;;;;;;;;4897990;29;20035;-93
2022/09/25 13:36:37;;;;;;;8.93;1.65;;;;;;;;;;4924522;29;20024;-91
2022/09/25 13:41:59;;;;;;;8.00;1.85;;;;;;;;;;4931386;29;20086;-90
2022/09/25 13:44:40;;;;;;;5.55;1.50;;;;;;;;;;4921180;29;20044;-92
2022/09/25 13:47:22;;;;;;;8.63;1.58;;;;;;;;;;4924714;29;20038;-91
2022/09/25 13:49:52;;;;;;;10.27;1.80;;;;;;;;;;4927208;29;20449;-93
2022/09/25 13:52:36;;;;;;;7.35;1.48;;;;;;;;;;4926451;29;20524;-90
2022/09/25 13:55:18;;;;;;;9.40;1.58;;;;;;;;;;4931073;29;20408;-89
2022/09/25 13:57:54;;;;;;;9.02;1.85;;;;;;;;;;4934814;29;20039;-90
2022/09/25 14:00:21;;;;;;;5.50;1.50;;;;;;;;;;4935140;29;20020;-90
2022/09/25 14:02:47;;;;;;;5.88;1.35;;;;;;;;;;4934816;29;20032;-89
2022/09/25 14:05:19;;;;;;;5.53;1.50;;;;;;;;;;4933734;29;20032;-89
2022/09/25 14:07:47;;;;;;;7.22;1.48;;;;;;;;;;4933668;29;20119;-90
2022/09/25 14:10:13;;;;;;;6.70;1.40;;;;;;;;;;4933848;29;20023;-90
2022/09/25 14:12:47;;;;;;;6.22;1.40;;;;;;;;;;4934758;29;20052;-90
2022/09/25 14:15:25;;;;;;;5.13;1.25;;;;;;;;;;4933824;29;20031;-90
2022/09/25 14:17:53;;;;;;;7.35;1.40;;;;;;;;;;4934157;29;20039;-89
2022/09/25 14:20:31;;;;;;;5.43;1.35;;;;;;;;;;4933824;29;20114;-88
2022/09/25 14:23:00;;;;;;;3.03;1.30;;;;;;;;;;4933584;29;20044;-91
2022/09/25 14:25:36;;;;;;;5.03;1.70;;;;;;;;;;4933471;29;20028;-89
2022/09/25 14:28:03;;;;;;;5.03;1.30;;;;;;;;;;4933600;29;20047;-90
2022/09/25 14:30:31;;;;;;;2.97;1.13;;;;;;;;;;4932977;29;20110;-89
2022/09/25 14:33:00;;;;;;;7.15;1.40;;;;;;;;;;4930437;29;20803;-90
2022/09/25 14:35:29;;;;;;;4.32;1.75;;;;;;;;;;4923728;29;20032;-90
2022/09/25 14:37:58;;;;;;;5.45;1.23;;;;;;;;;;4933482;29;20128;-90
2022/09/25 14:40:32;;;;;;;4.35;1.10;;;;;;;;;;4923045;29;20063;-90
2022/09/25 14:43:17;;;;;;;7.45;1.10;;;;;;;;;;4915351;29;20404;-89
2022/09/25 14:45:56;;;;;;;2.78;1.00;;;;;;;;;;4912963;29;20518;-90
2022/09/25 14:48:25;;;;;;;7.30;1.20;;;;;;;;;;4914315;29;20024;-91
2022/09/25 14:50:56;;;;;;;4.22;1.67;;;;;;;;;;4913361;29;20032;-89
2022/09/25 14:53:31;;;;;;;5.20;1.52;;;;;;;;;;4915635;29;20028;-90
2022/09/25 14:56:00;;;;;;;2.60;1.10;;;;;;;;;;4934639;29;20536;-89
2022/09/25 14:58:33;;;;;;;6.53;1.27;;;;;;;;;;4932910;29;20067;-93
2022/09/25 15:01:21;;;;;;;9.10;1.13;;;;;;;;;;4933596;29;20110;-90
2022/09/25 15:03:48;;;;;;;3.22;1.10;;;;;;;;;;4913227;29;20028;-91
2022/09/25 15:06:27;;;;;;;4.03;1.10;;;;;;;;;;4921714;29;20444;-90
2022/09/25 15:09:01;;;;;;;5.95;1.23;;;;;;;;;;4918292;29;20027;-90
2022/09/25 15:11:37;;;;;;;5.47;1.13;;;;;;;;;;4913993;29;20028;-91
2022/09/25 15:14:21;;;;;;;;;;;;;;;;;;;;;
2022/09/25 15:19:42;;;;;;;4.75;1.10;;;;;;;;;;4915001;29;20072;-91
2022/09/25 15:22:12;;;;;;;5.40;1.10;;;;;;;;;;4913726;29;20042;-90
2022/09/25 15:27:29;;;;;;;5.25;1.65;;;;;;;;;;4930865;29;20031;-91